• Join FlightAware (Why Join?)
  • Login
  • US Flag 
05:18PM EDT


 

Airport Tracker/Info


-or-


 

Live Flight TrackerFlight Track Log ✈ AWE3327 ✈ 30-Apr-2013 ✈ KDCA - KSRQ

Flight Track Log - Related Links

Times and Time Zones

All times are in EDT time to prevent confusion due to time zone crossing. See the AWE3327 flight status page for this flight to view local times or setup timezone preferences in your user account.

Time Position Orientation Groundspeed Altitude Reporting Facility
EDT Latitude Longitude Course Direction KTS MPH feet Rate Location/Type
08:46AM 38.8833 -77.0500 225° Southwest 168 193 1,300  Level Potomac TRACON
08:47AM 38.9167 -77.1000 311° West 234 269 3,600 2,520 Climbing Potomac TRACON
08:48AM 38.9833 -77.1667 322° Northwest 281 323 6,400 3,060 Climbing Potomac TRACON
08:49AM 38.5706 -77.3461 218° Southwest  Level FlightAware Approximate
08:49AM 38.9667 -77.2667 258° West 296 341 9,800  Level Potomac TRACON
08:50AM 38.4998 -77.4266 225° Southwest  Level FlightAware Approximate
08:50AM 38.9000 -77.3000 201° Southwest 299 344 12,300  Level Potomac TRACON
08:51AM 38.4328 -77.5126 225° Southwest  Level FlightAware Approximate
08:51AM 38.8167 -77.3500 205° Southwest 322 371 14,700  Level Potomac TRACON
08:52AM 38.7333 -77.3833 197° South 323 372 15,000 120 Climbing Potomac TRACON
08:53AM 38.6667 -77.4333 210° Southwest 320 368 15,000 300 Level Potomac TRACON
08:54AM 38.5833 -77.4667 197° South 325 374 15,600 1,380 Climbing Potomac TRACON
08:57AM 38.3603 -77.6281 210° Southwest 342 394 20,200 1,440 Climbing Washington Center
08:58AM 38.2917 -77.7344 231° Southwest 365 420 21,000 1,140 Climbing Washington Center
08:59AM 38.2086 -77.8325 223° Southwest 386 444 22,500 1,560 Climbing Washington Center
09:00AM 38.1131 -77.9300 219° Southwest 398 458 24,200 1,140 Climbing Washington Center
09:01AM 38.0192 -78.0272 219° Southwest 421 484 24,900 960 Climbing Washington Center
09:02AM 37.9342 -78.1114 218° Southwest 435 501 26,200 1,140 Climbing Washington Center
09:03AM 37.8336 -78.2239 221° Southwest 440 506 27,200 1,080 Climbing Washington Center
09:04AM 37.7439 -78.3153 219° Southwest 452 520 28,400 1,200 Climbing Washington Center
09:05AM 37.6436 -78.4139 218° Southwest 458 527 29,600 780 Climbing Washington Center
09:06AM 37.5475 -78.5097 218° Southwest 458 527 30,000 180 Climbing Washington Center
09:07AM 37.4492 -78.6081 218° Southwest 453 521 30,000  Level Washington Center
09:08AM 37.3400 -78.7133 217° Southwest 453 521 30,000  Level Washington Center
09:09AM 37.2417 -78.8086 218° Southwest 453 521 30,000  Level Washington Center
09:10AM 37.1408 -78.9086 218° Southwest 453 521 30,000 360 Level Washington Center
09:11AM 37.0422 -79.0033 217° Southwest 453 521 30,800 960 Climbing Washington Center
09:12AM 36.9478 -79.0978 219° Southwest 453 521 32,000 540 Climbing Washington Center
09:13AM 36.8594 -79.1847 218° Southwest 453 521 32,000  Level Washington Center
09:14AM 36.7628 -79.2814 219° Southwest 453 521 32,000  Level Washington Center
09:15AM 36.6636 -79.3775 218° Southwest 453 521 32,000  Level Washington Center
09:16AM 36.5647 -79.4736 218° Southwest 453 521 32,000  Level Washington Center
09:17AM 36.4589 -79.5794 219° Southwest 453 521 32,000 60 Level Washington Center
09:17AM 36.3983 -79.6333 216° Southwest 450 518 32,200 720 Climbing Atlanta Center
09:18AM 36.2997 -79.7289 218° Southwest 450 518 33,300 900 Climbing Atlanta Center
09:19AM 36.2008 -79.8242 218° Southwest 450 518 34,000 300 Climbing Atlanta Center
09:20AM 36.1017 -79.9192 218° Southwest 450 518 34,000  Level Atlanta Center
09:21AM 35.9794 -80.0075 210° Southwest 455 524 34,000  Level Atlanta Center
09:22AM 35.8586 -80.0700 203° Southwest 465 535 34,000  Level Atlanta Center
09:23AM 35.7372 -80.1269 201° Southwest 470 541 34,000  Level Atlanta Center
09:24AM 35.6142 -80.1942 204° Southwest 481 554 34,000  Level Atlanta Center
09:25AM 35.4931 -80.2561 203° Southwest 481 554 34,000  Level Atlanta Center
09:26AM 35.3697 -80.3153 201° Southwest 476 548 34,000  Level Atlanta Center
09:27AM 35.2483 -80.3767 202° Southwest 476 548 34,000  Level Atlanta Center
09:28AM 35.1375 -80.4322 202° Southwest 476 548 34,000  Level Atlanta Center
09:31AM 34.8478 -80.5756 202° Southwest 472 543 34,000  Level Jacksonville Center
09:32AM 34.7156 -80.6447 203° Southwest 466 536 34,000  Level Jacksonville Center
09:33AM 34.5975 -80.6983 200° South 475 547 34,000  Level Jacksonville Center
09:34AM 34.4736 -80.7617 203° Southwest 500 575 34,000  Level Jacksonville Center
09:35AM 34.3369 -80.8306 203° Southwest 495 570 34,000  Level Jacksonville Center
09:36AM 34.2189 -80.8861 201° Southwest 469 540 34,000  Level Jacksonville Center
09:37AM 34.0967 -80.9442 201° Southwest 468 539 34,000  Level Jacksonville Center
09:38AM 33.9744 -81.0019 201° Southwest 473 544 34,000  Level Jacksonville Center
09:39AM 33.8625 -81.0517 200° South 473 544 34,000  Level Jacksonville Center
09:40AM 33.7281 -81.1219 203° Southwest 473 544 34,000  Level Jacksonville Center
09:41AM 33.6078 -81.1794 202° Southwest 473 544 34,000  Level Jacksonville Center
09:42AM 33.4875 -81.2389 202° Southwest 473 544 34,000  Level Jacksonville Center
09:43AM 33.3692 -81.2983 203° Southwest 473 544 34,000  Level Jacksonville Center
09:44AM 33.2489 -81.3550 202° Southwest 473 544 34,000  Level Jacksonville Center
09:45AM 33.1267 -81.4167 203° Southwest 473 544 34,000  Level Jacksonville Center
09:46AM 33.0083 -81.4731 202° Southwest 473 544 34,000  Level Jacksonville Center
09:47AM 32.8878 -81.5319 202° Southwest 473 544 34,000  Level Jacksonville Center
09:48AM 32.7714 -81.5881 202° Southwest 468 539 34,000  Level Jacksonville Center
09:49AM 32.6553 -81.6464 203° Southwest 462 532 34,000  Level Jacksonville Center
09:50AM 32.5367 -81.7022 202° Southwest 457 526 34,000  Level Jacksonville Center
09:51AM 32.4328 -81.7531 202° Southwest 452 520 34,000  Level Jacksonville Center
09:52AM 32.2997 -81.8111 200° South 458 527 34,000  Level Jacksonville Center
09:53AM 32.1850 -81.8369 191° South 463 533 34,000  Level Jacksonville Center
09:54AM 32.0433 -81.8631 189° South 468 539 34,000  Level Jacksonville Center
09:55AM 31.9161 -81.8842 188° South 468 539 34,000  Level Jacksonville Center
09:56AM 31.8014 -81.9050 189° South 468 539 34,000  Level Jacksonville Center
09:57AM 31.6639 -81.9308 189° South 468 539 34,000  Level Jacksonville Center
09:58AM 31.5492 -81.9517 189° South 463 533 34,000  Level Jacksonville Center
09:59AM 31.4117 -81.9747 188° South 463 533 34,000  Level Jacksonville Center
10:00AM 31.2947 -81.9978 190° South 468 539 34,000  Level Jacksonville Center
10:01AM 31.1717 -82.0183 188° South 463 533 34,000  Level Jacksonville Center
10:02AM 31.0447 -82.0439 190° South 463 533 34,000  Level Jacksonville Center
10:03AM 30.9236 -82.0619 187° South 463 533 34,000  Level Jacksonville Center
10:04AM 30.8006 -82.0847 189° South 458 527 34,000  Level Jacksonville Center
10:05AM 30.6775 -82.1053 188° South 453 521 34,000  Level Jacksonville Center
10:06AM 30.5439 -82.1231 187° South 453 521 34,000  Level Jacksonville Center
10:07AM 30.4208 -82.1458 189° South 445 512 34,000  Level Jacksonville Center
10:08AM 30.2978 -82.1661 188° South 450 518 34,000  Level Jacksonville Center
10:09AM 30.1728 -82.1886 189° South 445 512 34,000 -60 Level Jacksonville Center
10:10AM 30.0517 -82.2086 188° South 450 518 33,900 -1,260 Descending Jacksonville Center
10:11AM 29.9244 -82.2358 191° South 450 518 31,500 -2,400 Descending Jacksonville Center
10:12AM 29.7994 -82.2583 189° South 450 518 29,100 -2,520 Descending Jacksonville Center
10:13AM 29.6719 -82.2686 184° South 455 524 26,500 -1,740 Descending Jacksonville Center
10:14AM 29.5467 -82.2503 173° South 455 524 25,700 -960 Descending Jacksonville Center
10:15AM 29.4214 -82.2322 173° South 455 524 24,600 -1,140 Descending Jacksonville Center
10:16AM 29.3003 -82.2139 172° South 455 524 23,500 -900 Descending Jacksonville Center
10:17AM 29.1789 -82.1958 173° South 450 518 22,900 -1,620 Descending Jacksonville Center
10:18AM 29.0600 -82.1775 172° South 440 506 20,300 -2,160 Descending Jacksonville Center
10:19AM 28.9681 -82.1664 174° South 428 493 18,600 -2,100 Descending Jacksonville Center
10:21AM 28.6833 -82.1167 171° South 393 452 13,300 -2,160 Descending Tampa TRACON
10:22AM 28.5833 -82.1000 172° South 377 434 11,300 -1,200 Descending Tampa TRACON
10:23AM 28.5000 -82.1167 190° South 356 410 11,100 -180 Descending Tampa TRACON
10:24AM 28.3833 -82.1333 187° South 363 418 11,000  Descending Tampa TRACON
10:25AM 28.2833 -82.1500 188° South 358 412 11,100  Climbing Tampa TRACON
10:26AM 28.2000 -82.1500 180° South 324 373 11,100 -840 Level Tampa TRACON
10:27AM 28.1167 -82.1667 190° South 284 327 9,500 -1,740 Descending Tampa TRACON
10:28AM 28.0333 -82.1833 190° South 283 326 7,700 -1,740 Descending Tampa TRACON
10:29AM 27.9667 -82.2000 192° South 275 316 6,200 -840 Descending Tampa TRACON
10:30AM 27.8833 -82.2167 190° South 275 316 6,100 -60 Descending Tampa TRACON
10:31AM 27.8167 -82.2167 180° South 272 313 6,100  Level Tampa TRACON
10:32AM 27.7500 -82.2500 204° Southwest 267 307 6,100  Level Tampa TRACON
10:33AM 27.7000 -82.3167 230° Southwest 268 308 6,100 -60 Level Tampa TRACON
10:34AM 27.6667 -82.3833 241° Southwest 268 308 6,000 -1,200 Descending Tampa TRACON
10:35AM 27.6167 -82.4667 236° Southwest 266 306 3,800 -1,320 Descending Tampa TRACON
10:36AM 27.6000 -82.5167 249° West 239 275 3,400 -360 Descending Tampa TRACON
10:37AM 27.5833 -82.6000 257° West 220 253 3,100 -180 Descending Tampa TRACON
10:38AM 27.5667 -82.6667 254° West 222 255 3,100 -120 Level Tampa TRACON
10:39AM 27.5500 -82.7167 249° West 188 216 2,900 -180 Descending Tampa TRACON
10:40AM 27.5167 -82.6833 138° Southeast 138 159 2,800 -240 Descending Tampa TRACON
10:41AM 27.4833 -82.6500 138° Southeast 143 165 2,400 -600 Descending Tampa TRACON
10:42AM 27.4500 -82.6167 138° Southeast 134 154 1,600 -840 Descending Tampa TRACON